Time;durP1;ratioP1;P1;durP2;ratioP2;P2;SDS_P1;SDS_P2;PMS_P1;PMS_P2;Temp;Humidity;BMP_temperature;BMP_pressure;BME280_temperature;BME280_humidity;BME280_pressure;Samples;Min_cycle;Max_cycle;Signal;HPM_P1;HPM_P2
2021/08/23 00:00:10;;;;;;;32.40;9.85;;;;;;;21.78;61.27;98913.66;2189852;81;20966;-81
2021/08/23 00:03:12;;;;;;;35.92;10.55;;;;;;;21.75;61.28;98918.61;2173567;81;20943;-81
2021/08/23 00:06:13;;;;;;;13.40;8.38;;;;;;;21.79;61.01;98911.41;2190237;81;20976;-81
2021/08/23 00:09:13;;;;;;;14.85;8.58;;;;;;;21.82;60.70;98907.33;2189958;81;21000;-81
2021/08/23 00:12:14;;;;;;;10.98;8.10;;;;;;;21.79;60.53;98908.30;2190304;81;21332;-81
2021/08/23 00:15:15;;;;;;;11.05;8.75;;;;;;;21.77;60.69;98906.15;2190098;81;20987;-81
2021/08/23 00:18:15;;;;;;;9.00;8.10;;;;;;;21.74;60.65;98908.91;2189953;81;21067;-80
2021/08/23 00:21:22;;;;;;;9.85;7.90;;;;;;;21.76;60.60;98906.20;2189853;81;21007;-80
2021/08/23 00:24:21;;;;;;;10.78;8.90;;;;;;;21.76;60.18;98899.55;2144747;83;21003;-80
2021/08/23 00:27:22;;;;;;;10.58;8.15;;;;;;;21.65;60.67;98887.91;2145288;83;21328;-81
2021/08/23 00:30:22;;;;;;;9.28;8.38;;;;;;;21.57;60.70;98878.00;2145267;83;20947;-81
2021/08/23 00:33:23;;;;;;;9.10;7.78;;;;;;;21.63;60.62;98865.39;2145026;83;20927;-82
2021/08/23 00:36:23;;;;;;;9.10;7.97;;;;;;;21.56;60.56;98869.62;2144872;83;21339;-80
2021/08/23 00:39:24;;;;;;;9.20;8.05;;;;;;;21.50;60.79;98864.05;2145154;83;20991;-81
2021/08/23 00:42:24;;;;;;;9.00;8.20;;;;;;;21.52;60.58;98869.30;2145248;83;20955;-80
2021/08/23 00:45:25;;;;;;;10.48;8.15;;;;;;;21.54;60.65;98873.66;2145206;83;20952;-81
2021/08/23 00:48:26;;;;;;;11.20;8.58;;;;;;;21.56;60.37;98866.50;2145179;83;20987;-81
2021/08/23 00:51:26;;;;;;;11.25;8.73;;;;;;;21.55;60.64;98871.41;2132933;83;21055;-81
2021/08/23 00:54:27;;;;;;;11.88;8.33;;;;;;;21.61;60.37;98873.86;2129071;84;21331;-81
2021/08/23 00:57:27;;;;;;;9.03;8.23;;;;;;;21.65;60.43;98867.13;2128869;84;21015;-81
2021/08/23 01:00:27;;;;;;;9.00;8.03;;;;;;;21.68;60.00;98867.06;2128779;84;21010;-80
2021/08/23 01:03:28;;;;;;;8.58;7.87;;;;;;;21.66;60.05;98863.55;2128844;84;20960;-80
2021/08/23 01:06:28;;;;;;;9.15;8.15;;;;;;;21.58;60.05;98863.34;2128521;84;20980;-80
2021/08/23 01:09:29;;;;;;;9.35;8.43;;;;;;;21.65;59.99;98872.44;2128636;84;21332;-80
2021/08/23 01:12:29;;;;;;;12.85;8.25;;;;;;;21.70;60.02;98874.06;2128907;84;21352;-80
2021/08/23 01:15:30;;;;;;;9.15;8.38;;;;;;;21.73;59.85;98871.77;2128902;84;20988;-80
2021/08/23 01:18:31;;;;;;;9.30;8.45;;;;;;;21.74;59.72;98865.06;2128225;84;21058;-81
2021/08/23 01:21:31;;;;;;;8.53;7.83;;;;;;;21.71;59.47;98869.61;2128477;84;21066;-80
2021/08/23 01:24:31;;;;;;;9.38;8.58;;;;;;;21.71;59.66;98866.50;2129049;84;20963;-80
2021/08/23 01:27:33;;;;;;;12.20;8.53;;;;;;;21.81;59.65;98871.05;2129254;84;21363;-81
2021/08/23 01:30:33;;;;;;;9.20;8.13;;;;;;;21.81;59.64;98869.27;2129162;84;20999;-81
2021/08/23 01:33:34;;;;;;;9.93;8.75;;;;;;;21.81;59.52;98865.73;2129477;84;20944;-81
2021/08/23 01:36:34;;;;;;;9.28;8.30;;;;;;;21.84;59.47;98858.98;2129204;84;20952;-80
2021/08/23 01:39:35;;;;;;;9.70;8.80;;;;;;;21.84;59.42;98856.33;2128934;84;21019;-80
2021/08/23 01:42:35;;;;;;;8.65;7.85;;;;;;;21.84;59.36;98844.38;2128597;84;20979;-80
2021/08/23 01:45:36;;;;;;;9.43;8.43;;;;;;;21.79;59.00;98847.19;2128892;84;20940;-81
2021/08/23 01:48:36;;;;;;;8.83;7.97;;;;;;;21.64;59.28;98845.00;2129570;84;20971;-83
2021/08/23 01:51:37;;;;;;;10.80;7.90;;;;;;;21.00;58.78;98835.06;2129412;82;21432;-82
2021/08/23 01:54:37;;;;;;;8.83;7.95;;;;;;;20.23;60.03;98824.41;2129648;84;20976;-80
2021/08/23 01:57:38;;;;;;;17.98;9.00;;;;;;;19.71;61.23;98824.42;2129569;84;21028;-81
2021/08/23 02:00:38;;;;;;;9.10;8.20;;;;;;;19.33;62.88;98822.68;2129081;84;21024;-81
2021/08/23 02:03:39;;;;;;;9.13;8.23;;;;;;;19.02;63.45;98832.20;2128609;84;20980;-81
2021/08/23 02:06:39;;;;;;;9.58;8.20;;;;;;;18.80;64.25;98825.19;2128734;84;20968;-79
2021/08/23 02:09:40;;;;;;;8.63;7.92;;;;;;;18.63;64.77;98828.64;2129271;84;21019;-81
2021/08/23 02:12:40;;;;;;;9.30;8.33;;;;;;;18.49;65.50;98818.77;2129436;84;21011;-81
2021/08/23 02:15:41;;;;;;;10.25;9.25;;;;;;;18.35;66.01;98822.56;2129036;84;20995;-81
2021/08/23 02:18:41;;;;;;;9.85;8.85;;;;;;;18.30;66.33;98826.19;2129362;84;20985;-82
2021/08/23 02:21:42;;;;;;;9.73;8.78;;;;;;;18.26;66.45;98824.06;2129176;84;21067;-79
2021/08/23 02:24:42;;;;;;;10.53;9.35;;;;;;;18.22;66.87;98823.70;2128931;84;21367;-79
2021/08/23 02:27:43;;;;;;;10.00;9.00;;;;;;;18.18;66.99;98820.66;2128766;84;20985;-81
2021/08/23 02:30:43;;;;;;;10.18;9.13;;;;;;;18.14;67.21;98817.66;2128768;84;20940;-80
2021/08/23 02:33:44;;;;;;;9.43;8.63;;;;;;;18.13;67.39;98813.27;2128090;84;20960;-79
2021/08/23 02:36:44;;;;;;;10.13;9.13;;;;;;;18.14;67.49;98816.34;2128105;84;20988;-79
2021/08/23 02:39:45;;;;;;;10.70;9.45;;;;;;;18.12;68.06;98810.21;2128482;84;21011;-81
2021/08/23 02:42:46;;;;;;;10.00;9.10;;;;;;;18.06;68.34;98803.27;2128328;84;20999;-81
2021/08/23 02:45:46;;;;;;;10.58;9.58;;;;;;;18.02;68.53;98796.76;2128000;84;21008;-81
2021/08/23 02:48:47;;;;;;;10.53;9.43;;;;;;;17.97;68.81;98795.52;2128286;84;20975;-79
2021/08/23 02:51:47;;;;;;;10.25;9.23;;;;;;;17.93;69.14;98798.25;2128138;83;21483;-81
2021/08/23 02:54:48;;;;;;;11.85;10.75;;;;;;;17.91;69.58;98784.20;2128294;84;21470;-80
2021/08/23 02:57:48;;;;;;;10.30;9.28;;;;;;;17.85;69.52;98781.68;2173345;81;21439;-81
2021/08/23 03:00:49;;;;;;;10.65;9.65;;;;;;;17.83;69.67;98786.53;2173394;81;20972;-81
2021/08/23 03:03:49;;;;;;;10.57;9.63;;;;;;;17.82;69.40;98787.88;2173535;82;21028;-80
2021/08/23 03:06:50;;;;;;;10.78;9.88;;;;;;;17.82;69.64;98792.72;2173404;81;20987;-80
2021/08/23 03:09:50;;;;;;;10.15;9.15;;;;;;;17.86;69.74;98791.34;2173622;81;20940;-81
2021/08/23 03:12:51;;;;;;;11.25;10.05;;;;;;;17.85;69.79;98791.79;2173689;81;20975;-80
2021/08/23 03:15:51;;;;;;;10.93;9.83;;;;;;;17.85;69.84;98793.11;2173212;82;21020;-81
2021/08/23 03:18:52;;;;;;;11.08;9.78;;;;;;;17.86;69.87;98782.09;2172692;81;21404;-81
2021/08/23 03:21:52;;;;;;;28.40;11.33;;;;;;;17.83;70.06;98786.53;2173129;82;21107;-79
2021/08/23 03:24:53;;;;;;;16.40;10.23;;;;;;;17.81;70.14;98783.05;2173176;81;21004;-81
2021/08/23 03:27:53;;;;;;;14.10;9.93;;;;;;;17.81;70.23;98777.77;2173910;81;21009;-81
2021/08/23 03:30:54;;;;;;;30.62;10.55;;;;;;;17.82;70.19;98785.24;2173465;81;21361;-81
2021/08/23 03:33:54;;;;;;;13.38;10.25;;;;;;;17.81;70.16;98789.66;2173737;81;20995;-81
2021/08/23 03:36:56;;;;;;;21.48;9.88;;;;;;;17.83;70.25;98786.98;2172511;81;20952;-80
2021/08/23 03:39:56;;;;;;;15.58;9.68;;;;;;;17.82;70.28;98786.56;2172196;82;21374;-80
2021/08/23 03:42:57;;;;;;;10.72;9.63;;;;;;;17.78;70.58;98794.99;2172401;81;20956;-80
2021/08/23 03:45:57;;;;;;;15.65;10.15;;;;;;;17.78;70.58;98802.91;2172415;81;20998;-80
2021/08/23 03:48:58;;;;;;;11.48;10.40;;;;;;;17.77;70.62;98805.58;2172656;81;21360;-80
2021/08/23 03:51:58;;;;;;;14.95;10.40;;;;;;;17.74;70.68;98807.83;2183890;81;21039;-81
2021/08/23 03:54:59;;;;;;;10.13;9.23;;;;;;;17.73;70.84;98823.23;2190101;81;20976;-81
2021/08/23 03:57:59;;;;;;;10.93;9.73;;;;;;;17.73;70.93;98817.95;2189618;81;21043;-81
2021/08/23 04:01:00;;;;;;;11.43;10.32;;;;;;;17.73;71.17;98815.77;2189816;81;20975;-81
2021/08/23 04:04:00;;;;;;;10.90;9.83;;;;;;;17.71;71.32;98819.76;2189841;81;20974;-81
2021/08/23 04:07:01;;;;;;;40.55;13.10;;;;;;;17.70;71.73;98818.02;2190096;81;21307;-81
2021/08/23 04:10:01;;;;;;;10.98;9.90;;;;;;;17.70;71.63;98816.69;2189678;81;20979;-80
2021/08/23 04:13:02;;;;;;;11.93;10.80;;;;;;;17.70;71.76;98820.66;2189542;81;20991;-80
2021/08/23 04:16:03;;;;;;;10.60;9.63;;;;;;;17.70;71.85;98825.06;2189671;81;20983;-80
2021/08/23 04:19:03;;;;;;;18.35;11.65;;;;;;;17.69;72.20;98822.00;2189680;81;20972;-80
2021/08/23 04:22:04;;;;;;;12.25;10.48;;;;;;;17.67;72.45;98830.39;2189333;81;21035;-80
2021/08/23 04:25:04;;;;;;;11.20;10.30;;;;;;;17.65;72.69;98835.66;2189709;81;21769;-82
2021/08/23 04:28:05;;;;;;;12.28;11.08;;;;;;;17.62;73.25;98840.13;2189691;81;20948;-81
2021/08/23 04:31:05;;;;;;;12.63;11.40;;;;;;;17.60;73.38;98829.59;2188966;81;20979;-81
2021/08/23 04:34:06;;;;;;;17.32;11.22;;;;;;;17.55;73.19;98831.44;2188970;81;20971;-81
2021/08/23 04:37:06;;;;;;;13.55;10.60;;;;;;;17.57;73.45;98842.84;2189075;81;20975;-81
2021/08/23 04:40:07;;;;;;;12.33;11.12;;;;;;;17.55;73.85;98842.44;2188732;81;20984;-80
2021/08/23 04:43:08;;;;;;;17.77;12.20;;;;;;;17.50;74.13;98836.79;2189932;81;21027;-80
2021/08/23 04:46:08;;;;;;;15.75;11.20;;;;;;;17.49;74.41;98830.22;2190571;81;21108;-82
2021/08/23 04:49:09;;;;;;;16.73;11.88;;;;;;;17.49;74.41;98830.22;2190618;81;21006;-80
2021/08/23 04:52:11;;;;;;;13.30;12.05;;;;;;;17.46;74.64;98828.95;2164957;82;21015;-80
2021/08/23 04:55:12;;;;;;;13.50;12.00;;;;;;;17.45;74.86;98831.16;2182638;82;20963;-80
2021/08/23 04:58:12;;;;;;;14.25;12.85;;;;;;;17.41;75.22;98832.98;2184531;82;21015;-80
2021/08/23 05:01:13;;;;;;;14.18;12.60;;;;;;;17.41;75.50;98829.02;2183651;82;21395;-80
2021/08/23 05:04:13;;;;;;;14.43;13.03;;;;;;;17.39;75.48;98830.81;2183374;82;20956;-81
2021/08/23 05:07:14;;;;;;;15.40;12.65;;;;;;;17.36;75.69;98833.50;2181367;82;20937;-82
2021/08/23 05:10:14;;;;;;;13.38;11.93;;;;;;;17.35;76.00;98835.71;2181300;82;21362;-82
2021/08/23 05:13:15;;;;;;;14.90;12.93;;;;;;;17.33;76.06;98837.47;2181826;82;20960;-82
2021/08/23 05:16:16;;;;;;;16.10;13.28;;;;;;;17.34;76.21;98831.33;2182089;82;20977;-82
2021/08/23 05:19:17;;;;;;;14.00;12.80;;;;;;;17.32;76.03;98837.49;2181882;82;20976;-81
2021/08/23 05:22:17;;;;;;;15.38;13.43;;;;;;;17.33;76.17;98832.64;2181937;82;21010;-83
2021/08/23 05:25:18;;;;;;;14.35;12.98;;;;;;;17.32;76.43;98830.89;2182244;82;21368;-83
2021/08/23 05:28:18;;;;;;;14.60;13.10;;;;;;;17.30;76.87;98834.87;2181877;82;20985;-83
2021/08/23 05:31:21;;;;;;;15.25;13.53;;;;;;;17.29;76.94;98840.17;2181948;82;20984;-82
2021/08/23 05:34:21;;;;;;;15.03;13.68;;;;;;;17.27;76.93;98836.69;2181965;81;21016;-82
2021/08/23 05:37:22;;;;;;;15.80;14.30;;;;;;;17.25;77.36;98839.35;2181959;82;21003;-81
2021/08/23 05:40:27;;;;;;;14.90;13.55;;;;;;;17.25;77.36;98839.35;2181545;82;20987;-82
2021/08/23 05:43:27;;;;;;;14.40;13.15;;;;;;;17.25;77.53;98839.80;2182426;82;20964;-82
2021/08/23 05:46:28;;;;;;;14.50;13.03;;;;;;;17.25;77.32;98841.12;2182540;82;20966;-83
2021/08/23 05:49:28;;;;;;;18.40;16.02;;;;;;;17.27;78.06;98840.65;2180969;82;20952;-82
2021/08/23 05:52:29;;;;;;;15.23;13.50;;;;;;;17.31;78.06;98846.30;2174407;82;21028;-83
2021/08/23 05:55:29;;;;;;;17.90;13.50;;;;;;;17.31;78.14;98847.17;2171665;81;20953;-83
2021/08/23 05:58:30;;;;;;;16.45;14.95;;;;;;;17.26;78.21;98839.78;2171766;81;20980;-84
2021/08/23 06:01:30;;;;;;;16.87;14.93;;;;;;;17.23;78.30;98846.86;2172540;81;20937;-83
2021/08/23 06:04:31;;;;;;;16.80;15.10;;;;;;;17.23;79.29;98850.82;2172115;81;20964;-83
2021/08/23 06:07:31;;;;;;;19.62;15.95;;;;;;;17.23;79.29;98850.82;2172177;81;21343;-83
2021/08/23 06:10:32;;;;;;;21.90;14.85;;;;;;;17.24;79.20;98855.20;2172090;81;20928;-82
2021/08/23 06:13:32;;;;;;;19.70;14.98;;;;;;;17.23;78.96;98856.09;2171692;81;20925;-81
2021/08/23 06:16:33;;;;;;;16.02;14.03;;;;;;;17.23;79.18;98853.46;2171976;81;21003;-81
2021/08/23 06:19:33;;;;;;;16.12;14.53;;;;;;;17.22;79.52;98853.91;2171796;82;20988;-80
2021/08/23 06:22:36;;;;;;;15.72;14.28;;;;;;;17.20;79.61;98854.38;2171817;81;21015;-82
2021/08/23 06:25:36;;;;;;;17.00;15.23;;;;;;;17.17;80.02;98855.29;2172212;81;20955;-81
2021/08/23 06:28:37;;;;;;;17.12;15.58;;;;;;;17.17;80.25;98857.93;2172194;81;20945;-81
2021/08/23 06:31:38;;;;;;;17.95;16.20;;;;;;;17.18;80.08;98847.80;2171731;81;20945;-83
2021/08/23 06:34:39;;;;;;;15.98;14.50;;;;;;;17.21;80.13;98849.53;2172627;81;20952;-81
2021/08/23 06:37:41;;;;;;;19.27;16.90;;;;;;;17.27;80.35;98849.87;2173010;81;21015;-83
2021/08/23 06:40:41;;;;;;;19.00;15.25;;;;;;;17.31;80.44;98848.94;2172412;81;20930;-83
2021/08/23 06:43:42;;;;;;;16.50;14.87;;;;;;;17.32;80.58;98851.55;2172843;81;21331;-84
2021/08/23 06:46:42;;;;;;;16.75;15.18;;;;;;;17.36;80.60;98848.45;2172240;81;20949;-83
2021/08/23 06:49:43;;;;;;;17.77;16.17;;;;;;;17.37;80.66;98854.16;2172515;81;20980;-80
2021/08/23 06:52:44;;;;;;;20.15;18.02;;;;;;;17.39;80.33;98855.00;2183177;81;20996;-81
2021/08/23 06:55:45;;;;;;;18.62;16.57;;;;;;;17.39;80.33;98855.00;2189380;81;21332;-82
2021/08/23 06:58:45;;;;;;;17.50;15.63;;;;;;;17.45;80.89;98852.27;2188998;81;20989;-82
2021/08/23 07:01:46;;;;;;;16.73;15.13;;;;;;;17.49;81.00;98853.52;2188975;81;21713;-81
2021/08/23 07:04:49;;;;;;;17.40;15.70;;;;;;;17.49;80.89;98851.33;2189582;81;21013;-82
2021/08/23 07:07:48;;;;;;;16.87;15.15;;;;;;;17.51;80.94;98852.17;2188960;81;20968;-82
2021/08/23 07:10:49;;;;;;;16.42;14.60;;;;;;;17.53;81.10;98849.06;2189478;81;21380;-82
2021/08/23 07:13:49;;;;;;;17.60;15.95;;;;;;;17.56;81.17;98846.38;2189170;81;20944;-82
2021/08/23 07:16:50;;;;;;;17.82;15.93;;;;;;;17.57;81.17;98850.75;2188145;81;21350;-81
2021/08/23 07:19:50;;;;;;;18.23;16.52;;;;;;;17.58;81.37;98851.18;2188155;81;20995;-83
2021/08/23 07:22:51;;;;;;;17.45;15.88;;;;;;;17.61;81.33;98851.13;2188109;81;21039;-84
2021/08/23 07:25:51;;;;;;;17.30;15.60;;;;;;;17.63;81.39;98853.74;2188478;81;20968;-83
2021/08/23 07:28:55;;;;;;;17.50;15.72;;;;;;;17.64;81.22;98854.17;2188387;81;21347;-83
2021/08/23 07:31:55;;;;;;;18.77;16.97;;;;;;;17.64;81.22;98858.13;2189197;81;20984;-84
2021/08/23 07:34:56;;;;;;;16.62;15.13;;;;;;;17.66;81.50;98854.59;2189433;81;21321;-81
2021/08/23 07:38:00;;;;;;;17.87;15.85;;;;;;;17.69;81.27;98857.19;2188955;81;21035;-82
2021/08/23 07:41:03;;;;;;;17.17;15.58;;;;;;;17.74;81.38;98851.83;2189767;81;20998;-82
2021/08/23 07:44:02;;;;;;;18.15;16.30;;;;;;;17.79;81.21;98856.59;2188968;81;21032;-84
2021/08/23 07:47:04;;;;;;;18.65;16.70;;;;;;;17.85;81.29;98859.57;2189174;81;21367;-79
2021/08/23 07:50:05;;;;;;;18.92;17.07;;;;;;;17.91;81.38;98859.02;2188723;81;20932;-84
2021/08/23 07:53:05;;;;;;;18.30;16.37;;;;;;;17.95;81.17;98851.91;2176344;81;21087;-83
2021/08/23 07:56:08;;;;;;;17.90;15.95;;;;;;;17.98;81.23;98854.50;2036972;87;21016;-83
2021/08/23 07:59:08;;;;;;;19.90;16.40;;;;;;;17.99;81.13;98854.91;2037858;87;21693;-82
2021/08/23 08:02:09;;;;;;;18.82;15.75;;;;;;;17.98;81.14;98858.01;2038709;87;20987;-82
2021/08/23 08:05:09;;;;;;;18.92;17.07;;;;;;;17.94;81.34;98851.04;2038135;87;20992;-82
2021/08/23 08:08:10;;;;;;;19.70;17.37;;;;;;;17.90;81.59;98855.95;2038138;87;20959;-84
2021/08/23 08:11:11;;;;;;;19.73;17.60;;;;;;;17.86;81.35;98849.43;2038376;87;20968;-82
2021/08/23 08:14:11;;;;;;;21.75;16.57;;;;;;;17.86;81.51;98856.03;2039211;87;21019;-82
2021/08/23 08:17:12;;;;;;;22.55;17.95;;;;;;;17.82;81.63;98853.45;2037613;87;21791;-82
2021/08/23 08:23:15;;;;;;;20.15;18.25;;;;;;;17.81;81.82;98860.94;2015986;87;21059;-82
2021/08/23 08:26:16;;;;;;;17.37;15.83;;;;;;;17.85;81.99;98858.25;2037877;87;21000;-82
2021/08/23 08:29:16;;;;;;;18.20;16.57;;;;;;;17.85;82.56;98851.20;2038389;87;20992;-82
2021/08/23 08:32:17;;;;;;;19.45;16.85;;;;;;;17.90;82.36;98859.04;2038712;87;21000;-82
2021/08/23 08:35:17;;;;;;;18.55;16.85;;;;;;;17.92;82.17;98857.25;2037940;87;21260;-82
2021/08/23 08:38:18;;;;;;;17.48;15.83;;;;;;;17.95;82.16;98850.59;2037320;87;21376;-83
2021/08/23 08:41:18;;;;;;;16.42;14.85;;;;;;;17.97;82.19;98858.03;2038121;87;21067;-82
2021/08/23 08:44:19;;;;;;;15.28;13.98;;;;;;;18.02;82.29;98851.77;2038150;87;21003;-81
2021/08/23 08:47:19;;;;;;;16.55;14.90;;;;;;;18.07;82.50;98852.56;2036973;87;21691;-83
2021/08/23 08:50:20;;;;;;;17.15;15.53;;;;;;;18.14;82.20;98857.28;2037157;87;20979;-82
2021/08/23 08:53:20;;;;;;;15.28;13.93;;;;;;;18.22;82.38;98850.12;2136795;82;21059;-81
2021/08/23 08:56:21;;;;;;;16.80;15.30;;;;;;;18.31;81.90;98852.59;2172158;81;20980;-81
2021/08/23 08:59:22;;;;;;;15.85;14.35;;;;;;;18.36;81.69;98853.37;2172815;81;21020;-80
2021/08/23 09:02:22;;;;;;;16.42;14.85;;;;;;;18.40;81.89;98853.73;2171330;81;20921;-79
2021/08/23 09:05:23;;;;;;;16.67;15.10;;;;;;;18.47;81.48;98854.48;2172007;81;21004;-82
2021/08/23 09:08:28;;;;;;;19.82;15.28;;;;;;;18.53;81.45;98849.52;2172470;81;20941;-81
2021/08/23 09:11:27;;;;;;;18.23;13.80;;;;;;;18.46;81.59;98852.29;2172831;81;20990;-82
2021/08/23 09:14:28;;;;;;;16.20;14.80;;;;;;;18.45;81.47;98855.83;2173282;81;20961;-83
2021/08/23 09:17:31;;;;;;;15.83;14.28;;;;;;;18.44;81.70;98848.80;2173587;82;21003;-82
2021/08/23 09:20:32;;;;;;;14.68;13.22;;;;;;;18.47;81.75;98846.55;2172284;81;21758;-81
2021/08/23 09:23:33;;;;;;;15.55;13.88;;;;;;;18.49;81.57;98849.16;2172335;82;20964;-82
2021/08/23 09:26:33;;;;;;;16.32;14.70;;;;;;;18.50;81.62;98853.55;2172363;82;20988;-81
2021/08/23 09:29:34;;;;;;;16.75;15.25;;;;;;;18.52;81.86;98848.66;2172199;82;21051;-82
2021/08/23 09:32:34;;;;;;;15.53;13.98;;;;;;;18.59;81.57;98845.44;2172773;81;21007;-84
2021/08/23 09:35:35;;;;;;;15.38;13.98;;;;;;;18.67;81.42;98843.53;2172400;82;20956;-82
2021/08/23 09:38:36;;;;;;;15.80;14.30;;;;;;;18.83;81.36;98842.77;2172019;81;21389;-82
2021/08/23 09:41:40;;;;;;;14.93;13.70;;;;;;;18.83;81.36;98842.77;2172509;81;21296;-81
2021/08/23 09:44:39;;;;;;;15.03;13.53;;;;;;;18.92;81.68;98840.79;2172341;81;21005;-82
2021/08/23 09:47:39;;;;;;;14.38;13.00;;;;;;;18.97;81.29;98844.20;2172304;81;20969;-81
2021/08/23 09:50:40;;;;;;;14.55;13.18;;;;;;;19.04;81.12;98842.30;2172030;81;20945;-81
2021/08/23 09:53:40;;;;;;;15.18;12.93;;;;;;;19.07;81.05;98843.55;2171419;81;21012;-82
2021/08/23 09:56:41;;;;;;;16.42;14.75;;;;;;;19.09;81.06;98846.61;2171953;81;20953;-82
2021/08/23 09:59:44;;;;;;;14.65;13.45;;;;;;;19.09;81.04;98847.06;2172147;81;21012;-81
2021/08/23 10:02:44;;;;;;;16.02;13.80;;;;;;;18.98;80.81;98843.30;2173052;81;21024;-82
2021/08/23 10:05:45;;;;;;;15.23;13.85;;;;;;;18.92;81.29;98848.72;2171310;81;20957;-82
2021/08/23 10:08:45;;;;;;;16.27;12.78;;;;;;;18.87;81.81;98840.02;2171628;81;20952;-82
2021/08/23 10:11:47;;;;;;;14.38;12.98;;;;;;;18.81;81.69;98854.70;2171601;81;20952;-82
2021/08/23 10:14:48;;;;;;;13.93;12.60;;;;;;;18.76;81.96;98853.47;2172899;81;21356;-83
2021/08/23 10:17:48;;;;;;;12.98;11.70;;;;;;;18.71;82.37;98854.02;2172656;81;21024;-82
2021/08/23 10:20:49;;;;;;;14.05;12.60;;;;;;;18.64;82.56;98855.50;2171302;81;20921;-80
2021/08/23 10:23:49;;;;;;;10.75;9.20;;;;;;;18.60;82.76;98855.98;2170984;82;21032;-82
2021/08/23 10:26:50;;;;;;;9.90;9.00;;;;;;;18.55;82.34;98847.27;2171640;81;21019;-81
2021/08/23 10:29:53;;;;;;;10.40;9.50;;;;;;;18.50;81.93;98855.73;2172010;82;20941;-82
2021/08/23 10:32:54;;;;;;;11.38;10.38;;;;;;;18.46;81.88;98855.38;2173145;82;21329;-81
2021/08/23 10:35:58;;;;;;;15.18;13.60;;;;;;;18.46;82.03;98856.25;2172443;81;20960;-81
2021/08/23 10:38:57;;;;;;;13.70;12.35;;;;;;;18.46;82.59;98861.53;2171823;81;21103;-80
2021/08/23 10:41:57;;;;;;;16.32;14.07;;;;;;;18.40;82.62;98864.75;2171662;81;20981;-82
2021/08/23 10:44:58;;;;;;;12.78;11.55;;;;;;;18.38;82.97;98860.81;2172247;81;20956;-80
2021/08/23 10:47:58;;;;;;;14.20;13.10;;;;;;;18.33;83.20;98865.31;2171330;81;20932;-82
2021/08/23 10:50:59;;;;;;;15.55;14.25;;;;;;;18.31;83.21;98863.16;2171558;81;21293;-80
2021/08/23 10:53:59;;;;;;;15.18;13.88;;;;;;;18.34;83.59;98863.09;2183956;81;21383;-81
2021/08/23 10:57:00;;;;;;;16.20;14.58;;;;;;;18.34;83.02;98862.23;2188813;81;20963;-81
2021/08/23 11:00:00;;;;;;;20.72;18.62;;;;;;;18.39;83.62;98859.05;2188021;81;20988;-81
2021/08/23 11:03:01;;;;;;;19.85;18.10;;;;;;;18.48;83.51;98855.35;2189149;81;21374;-80
2021/08/23 11:06:01;;;;;;;20.62;18.80;;;;;;;18.54;83.17;98854.78;2189107;81;21327;-81
2021/08/23 11:09:02;;;;;;;16.65;14.23;;;;;;;18.61;83.49;98862.13;2189355;81;20944;-82
2021/08/23 11:12:02;;;;;;;13.58;12.37;;;;;;;18.68;83.25;98854.53;2188580;81;20940;-82
2021/08/23 11:18:28;;;;;;;13.93;12.60;;;;;;;18.89;82.99;98852.75;2186845;81;20968;-83
2021/08/23 11:21:30;;;;;;;17.27;15.30;;;;;;;19.03;82.90;98857.30;2187900;81;20973;-79
2021/08/23 11:24:30;;;;;;;21.12;17.25;;;;;;;19.14;82.17;98854.89;2188473;81;21003;-84
2021/08/23 11:27:31;;;;;;;19.67;17.90;;;;;;;19.28;81.86;98856.77;2188503;81;20992;-83
2021/08/23 11:30:31;;;;;;;21.27;19.10;;;;;;;19.42;81.59;98846.73;2188602;81;20940;-83
2021/08/23 11:33:32;;;;;;;30.50;23.60;;;;;;;19.50;81.53;98851.39;2188334;81;21007;-82
2021/08/23 11:36:32;;;;;;;20.40;18.50;;;;;;;19.55;81.11;98857.94;2188292;81;20972;-81
2021/08/23 11:39:33;;;;;;;22.60;20.55;;;;;;;19.66;80.69;98852.80;2188541;81;20991;-82
2021/08/23 11:42:34;;;;;;;15.83;14.43;;;;;;;19.77;80.49;98852.98;2188803;81;20945;-82
2021/08/23 11:45:34;;;;;;;21.42;19.23;;;;;;;19.84;80.04;98853.24;2189213;81;21019;-81
2021/08/23 11:48:35;;;;;;;17.75;16.17;;;;;;;19.92;80.12;98852.14;2188601;81;21319;-84
2021/08/23 11:51:36;;;;;;;16.23;14.73;;;;;;;19.97;80.01;98853.38;2188324;81;20984;-79
2021/08/23 11:54:38;;;;;;;14.65;13.40;;;;;;;19.94;79.88;98857.39;2172615;81;21028;-82
2021/08/23 11:57:38;;;;;;;16.00;14.60;;;;;;;19.90;79.82;98855.28;2171633;81;21012;-81
2021/08/23 12:00:39;;;;;;;12.73;11.43;;;;;;;19.94;79.57;98856.08;2171913;81;20973;-83
2021/08/23 12:03:39;;;;;;;13.30;12.10;;;;;;;19.87;79.41;98854.48;2171629;81;21426;-81
2021/08/23 12:06:40;;;;;;;13.32;12.13;;;;;;;19.79;79.43;98863.08;2171313;81;20921;-84
2021/08/23 12:09:40;;;;;;;10.48;9.55;;;;;;;19.68;79.49;98865.55;2172265;82;20960;-81
2021/08/23 12:12:41;;;;;;;11.53;10.40;;;;;;;19.65;79.93;98862.10;2171461;82;20984;-80
2021/08/23 12:15:41;;;;;;;11.43;10.50;;;;;;;19.67;80.02;98862.48;2171524;81;20913;-82
2021/08/23 12:18:42;;;;;;;9.93;9.00;;;;;;;19.70;80.56;98862.41;2171763;82;21961;-81
2021/08/23 12:21:43;;;;;;;11.73;10.72;;;;;;;19.72;80.43;98863.23;2171240;82;20957;-82
2021/08/23 12:24:43;;;;;;;11.45;10.45;;;;;;;19.73;80.16;98865.43;2171868;81;21011;-81
2021/08/23 12:27:44;;;;;;;17.40;14.60;;;;;;;19.81;79.75;98858.62;2171762;81;20932;-83
2021/08/23 12:30:44;;;;;;;15.40;13.98;;;;;;;19.86;79.96;98859.38;2172470;81;20960;-81
2021/08/23 12:33:47;;;;;;;13.53;12.13;;;;;;;19.92;79.66;98856.56;2171534;82;20973;-82
2021/08/23 12:36:48;;;;;;;17.17;15.58;;;;;;;19.81;79.54;98855.97;2172143;81;20940;-82
2021/08/23 12:39:50;;;;;;;14.38;12.98;;;;;;;19.79;80.24;98852.48;2186289;81;22068;-83
2021/08/23 12:42:50;;;;;;;13.03;11.75;;;;;;;19.94;79.91;98852.09;2173227;81;20996;-84
2021/08/23 12:45:51;;;;;;;11.43;10.43;;;;;;;20.11;79.98;98843.28;2172725;81;20964;-83
2021/08/23 12:48:51;;;;;;;13.15;12.05;;;;;;;20.17;79.53;98843.13;2172662;81;20937;-81
2021/08/23 12:51:52;;;;;;;15.05;13.75;;;;;;;20.23;78.98;98840.30;2172538;81;20976;-81
2021/08/23 12:54:54;;;;;;;15.32;13.93;;;;;;;20.31;78.81;98836.99;2165145;81;21051;-82
2021/08/23 12:57:55;;;;;;;13.53;12.33;;;;;;;20.35;78.65;98826.72;2184549;81;21419;-83
2021/08/23 13:00:57;;;;;;;13.10;11.85;;;;;;;20.42;78.53;98825.25;2165699;81;20963;-82
2021/08/23 13:03:58;;;;;;;19.00;17.20;;;;;;;20.47;78.18;98819.36;2184894;81;21003;-82
2021/08/23 13:06:58;;;;;;;13.80;12.58;;;;;;;20.59;78.96;98818.55;2185406;81;20959;-83
2021/08/23 13:09:59;;;;;;;12.85;11.33;;;;;;;20.71;77.92;98818.66;2185936;81;20944;-83
2021/08/23 13:12:59;;;;;;;15.40;13.80;;;;;;;20.72;77.31;98814.22;2185950;81;21297;-82
2021/08/23 13:16:00;;;;;;;14.60;13.22;;;;;;;20.70;77.80;98815.59;2185675;81;21363;-83
2021/08/23 13:19:01;;;;;;;14.38;13.18;;;;;;;20.62;77.17;98801.23;2185289;81;21016;-82
2021/08/23 13:22:02;;;;;;;14.20;12.88;;;;;;;20.62;77.14;98805.20;2185267;81;21004;-83
2021/08/23 13:25:02;;;;;;;11.97;10.90;;;;;;;20.78;77.07;98804.75;2184803;81;20999;-84
2021/08/23 13:28:03;;;;;;;12.90;11.60;;;;;;;20.90;77.19;98809.27;2185744;81;20940;-83
2021/08/23 13:31:03;;;;;;;10.82;9.85;;;;;;;21.14;76.84;98810.75;2186101;81;21008;-83
2021/08/23 13:34:04;;;;;;;14.93;13.35;;;;;;;21.15;76.37;98813.81;2186019;81;20913;-82
2021/08/23 13:37:04;;;;;;;9.95;9.15;;;;;;;21.06;75.68;98819.41;2185379;81;21327;-81
2021/08/23 13:40:05;;;;;;;10.70;9.88;;;;;;;21.05;75.82;98821.66;2185052;81;20983;-82
2021/08/23 13:43:05;;;;;;;10.15;9.25;;;;;;;20.95;76.32;98820.61;2185170;81;20987;-82
2021/08/23 13:46:06;;;;;;;14.83;13.30;;;;;;;20.94;75.78;98825.50;2184947;81;20920;-85
2021/08/23 13:49:06;;;;;;;10.45;9.53;;;;;;;20.94;75.73;98824.17;2184878;81;20924;-82
2021/08/23 13:59:07;;;;;;;10.25;9.35;;;;;;;21.06;75.86;98824.25;2173228;82;21391;-81
2021/08/23 14:02:26;;;;;;;;;;;;;;;21.03;75.71;98823.02;2175634;82;21015;-83
2021/08/23 14:05:26;;;;;;;9.30;8.40;;;;;;;21.10;75.54;98816.61;2173004;81;20128;-82
2021/08/23 14:08:27;;;;;;;8.85;8.15;;;;;;;21.38;75.49;98812.66;2173050;81;20948;-82